sensor_id;sensor_type;location;lat;lon;timestamp;P1;durP1;ratioP1;P2;durP2;ratioP2
42140;SDS011;27809;51.864;5.646;2022-08-01T00:01:15;15.00;;;6.18;;
42140;SDS011;27809;51.864;5.646;2022-08-01T00:03:41;11.93;;;6.32;;
42140;SDS011;27809;51.864;5.646;2022-08-01T00:06:06;11.13;;;6.40;;
42140;SDS011;27809;51.864;5.646;2022-08-01T00:08:32;11.68;;;6.45;;
42140;SDS011;27809;51.864;5.646;2022-08-01T00:10:57;12.48;;;5.03;;
42140;SDS011;27809;51.864;5.646;2022-08-01T00:13:23;12.23;;;6.38;;
42140;SDS011;27809;51.864;5.646;2022-08-01T00:15:48;12.13;;;5.75;;
42140;SDS011;27809;51.864;5.646;2022-08-01T00:18:14;14.02;;;5.70;;
42140;SDS011;27809;51.864;5.646;2022-08-01T00:20:39;14.10;;;6.07;;
42140;SDS011;27809;51.864;5.646;2022-08-01T00:23:05;12.40;;;7.47;;
42140;SDS011;27809;51.864;5.646;2022-08-01T00:25:30;11.90;;;6.53;;
42140;SDS011;27809;51.864;5.646;2022-08-01T00:27:56;10.82;;;6.47;;
42140;SDS011;27809;51.864;5.646;2022-08-01T00:30:21;9.50;;;6.07;;
42140;SDS011;27809;51.864;5.646;2022-08-01T00:32:47;11.88;;;5.40;;
42140;SDS011;27809;51.864;5.646;2022-08-01T00:35:12;21.10;;;7.00;;
42140;SDS011;27809;51.864;5.646;2022-08-01T00:37:38;21.25;;;6.88;;
42140;SDS011;27809;51.864;5.646;2022-08-01T00:40:04;12.60;;;6.47;;
42140;SDS011;27809;51.864;5.646;2022-08-01T00:42:30;15.80;;;7.28;;
42140;SDS011;27809;51.864;5.646;2022-08-01T00:44:56;12.55;;;7.10;;
42140;SDS011;27809;51.864;5.646;2022-08-01T00:47:21;10.43;;;5.95;;
42140;SDS011;27809;51.864;5.646;2022-08-01T00:49:47;11.77;;;6.03;;
42140;SDS011;27809;51.864;5.646;2022-08-01T00:52:12;12.50;;;6.22;;
42140;SDS011;27809;51.864;5.646;2022-08-01T00:54:38;12.30;;;6.05;;
42140;SDS011;27809;51.864;5.646;2022-08-01T00:57:04;12.80;;;5.97;;
42140;SDS011;27809;51.864;5.646;2022-08-01T00:59:30;12.15;;;6.43;;
42140;SDS011;27809;51.864;5.646;2022-08-01T01:01:55;12.00;;;6.43;;
42140;SDS011;27809;51.864;5.646;2022-08-01T01:04:21;13.38;;;6.68;;
42140;SDS011;27809;51.864;5.646;2022-08-01T01:09:43;25.65;;;8.80;;
42140;SDS011;27809;51.864;5.646;2022-08-01T01:17:55;11.20;;;7.05;;
42140;SDS011;27809;51.864;5.646;2022-08-01T01:20:41;9.05;;;4.60;;
42140;SDS011;27809;51.864;5.646;2022-08-01T01:23:34;13.98;;;6.03;;
42140;SDS011;27809;51.864;5.646;2022-08-01T01:29:15;8.95;;;5.60;;
42140;SDS011;27809;51.864;5.646;2022-08-01T01:31:52;9.80;;;5.40;;
42140;SDS011;27809;51.864;5.646;2022-08-01T01:34:31;9.93;;;5.00;;
42140;SDS011;27809;51.864;5.646;2022-08-01T01:36:59;13.93;;;5.47;;
42140;SDS011;27809;51.864;5.646;2022-08-01T01:39:29;11.25;;;4.65;;
42140;SDS011;27809;51.864;5.646;2022-08-01T01:41:57;11.30;;;5.03;;
42140;SDS011;27809;51.864;5.646;2022-08-01T01:44:25;16.20;;;5.32;;
42140;SDS011;27809;51.864;5.646;2022-08-01T01:46:52;10.65;;;4.57;;
42140;SDS011;27809;51.864;5.646;2022-08-01T01:49:21;11.93;;;4.75;;
42140;SDS011;27809;51.864;5.646;2022-08-01T01:51:50;12.80;;;5.45;;
42140;SDS011;27809;51.864;5.646;2022-08-01T01:54:18;9.48;;;3.97;;
42140;SDS011;27809;51.864;5.646;2022-08-01T01:56:45;8.70;;;4.38;;
42140;SDS011;27809;51.864;5.646;2022-08-01T01:59:20;8.48;;;4.22;;
42140;SDS011;27809;51.864;5.646;2022-08-01T02:01:49;12.70;;;6.00;;
42140;SDS011;27809;51.864;5.646;2022-08-01T02:04:17;8.50;;;5.43;;
42140;SDS011;27809;51.864;5.646;2022-08-01T02:06:46;9.85;;;5.47;;
42140;SDS011;27809;51.864;5.646;2022-08-01T02:09:18;13.93;;;5.95;;
42140;SDS011;27809;51.864;5.646;2022-08-01T02:11:47;15.98;;;6.80;;
42140;SDS011;27809;51.864;5.646;2022-08-01T02:14:14;15.13;;;7.40;;
42140;SDS011;27809;51.864;5.646;2022-08-01T02:16:42;11.77;;;5.68;;
42140;SDS011;27809;51.864;5.646;2022-08-01T02:19:11;9.95;;;4.60;;
42140;SDS011;27809;51.864;5.646;2022-08-01T02:21:38;14.18;;;6.50;;
42140;SDS011;27809;51.864;5.646;2022-08-01T02:24:49;14.70;;;5.03;;
42140;SDS011;27809;51.864;5.646;2022-08-01T02:27:00;15.38;;;7.20;;
42140;SDS011;27809;51.864;5.646;2022-08-01T02:29:46;13.77;;;7.13;;
42140;SDS011;27809;51.864;5.646;2022-08-01T02:32:25;13.73;;;7.78;;
42140;SDS011;27809;51.864;5.646;2022-08-01T02:34:55;9.85;;;5.35;;
42140;SDS011;27809;51.864;5.646;2022-08-01T02:37:23;10.35;;;5.10;;
42140;SDS011;27809;51.864;5.646;2022-08-01T02:39:54;16.92;;;6.28;;
42140;SDS011;27809;51.864;5.646;2022-08-01T02:42:20;12.73;;;6.25;;
42140;SDS011;27809;51.864;5.646;2022-08-01T02:44:49;11.35;;;5.53;;
42140;SDS011;27809;51.864;5.646;2022-08-01T02:47:16;13.80;;;5.65;;
42140;SDS011;27809;51.864;5.646;2022-08-01T02:49:46;14.23;;;6.35;;
42140;SDS011;27809;51.864;5.646;2022-08-01T02:52:14;16.83;;;7.25;;
42140;SDS011;27809;51.864;5.646;2022-08-01T02:54:42;11.05;;;5.40;;
42140;SDS011;27809;51.864;5.646;2022-08-01T02:57:10;13.73;;;5.82;;
42140;SDS011;27809;51.864;5.646;2022-08-01T02:59:37;15.32;;;5.75;;
42140;SDS011;27809;51.864;5.646;2022-08-01T03:02:04;13.27;;;6.32;;
42140;SDS011;27809;51.864;5.646;2022-08-01T03:04:35;14.20;;;6.13;;
42140;SDS011;27809;51.864;5.646;2022-08-01T03:07:04;14.18;;;6.80;;
42140;SDS011;27809;51.864;5.646;2022-08-01T03:09:34;15.63;;;6.00;;
42140;SDS011;27809;51.864;5.646;2022-08-01T03:12:02;13.68;;;6.45;;
42140;SDS011;27809;51.864;5.646;2022-08-01T03:14:31;13.52;;;6.78;;
42140;SDS011;27809;51.864;5.646;2022-08-01T03:17:01;16.98;;;5.47;;
42140;SDS011;27809;51.864;5.646;2022-08-01T03:19:28;12.60;;;5.55;;
42140;SDS011;27809;51.864;5.646;2022-08-01T03:21:56;18.95;;;7.05;;
42140;SDS011;27809;51.864;5.646;2022-08-01T03:24:28;20.30;;;7.50;;
42140;SDS011;27809;51.864;5.646;2022-08-01T03:26:53;17.67;;;6.32;;
42140;SDS011;27809;51.864;5.646;2022-08-01T03:29:24;17.08;;;5.95;;
42140;SDS011;27809;51.864;5.646;2022-08-01T03:31:52;19.77;;;6.75;;
42140;SDS011;27809;51.864;5.646;2022-08-01T03:34:18;24.83;;;7.30;;
42140;SDS011;27809;51.864;5.646;2022-08-01T03:36:50;17.52;;;7.13;;
42140;SDS011;27809;51.864;5.646;2022-08-01T03:39:22;15.20;;;6.05;;
42140;SDS011;27809;51.864;5.646;2022-08-01T03:41:54;19.13;;;6.50;;
42140;SDS011;27809;51.864;5.646;2022-08-01T03:44:25;19.02;;;6.60;;
42140;SDS011;27809;51.864;5.646;2022-08-01T03:46:59;15.75;;;6.82;;
42140;SDS011;27809;51.864;5.646;2022-08-01T03:49:31;15.77;;;7.72;;
42140;SDS011;27809;51.864;5.646;2022-08-01T03:52:01;16.73;;;6.68;;
42140;SDS011;27809;51.864;5.646;2022-08-01T03:54:30;16.15;;;6.43;;
42140;SDS011;27809;51.864;5.646;2022-08-01T03:56:58;20.98;;;7.85;;
42140;SDS011;27809;51.864;5.646;2022-08-01T03:59:25;14.63;;;6.65;;
42140;SDS011;27809;51.864;5.646;2022-08-01T04:01:51;15.60;;;6.85;;
42140;SDS011;27809;51.864;5.646;2022-08-01T04:04:18;12.75;;;5.70;;
42140;SDS011;27809;51.864;5.646;2022-08-01T04:06:44;16.58;;;6.72;;
42140;SDS011;27809;51.864;5.646;2022-08-01T04:09:10;13.27;;;5.97;;
42140;SDS011;27809;51.864;5.646;2022-08-01T04:11:35;17.17;;;7.03;;
42140;SDS011;27809;51.864;5.646;2022-08-01T04:14:01;21.58;;;7.30;;
42140;SDS011;27809;51.864;5.646;2022-08-01T04:16:27;15.00;;;6.13;;
42140;SDS011;27809;51.864;5.646;2022-08-01T04:18:52;15.50;;;7.18;;
42140;SDS011;27809;51.864;5.646;2022-08-01T04:21:18;17.35;;;7.47;;
42140;SDS011;27809;51.864;5.646;2022-08-01T04:23:48;13.77;;;6.30;;
42140;SDS011;27809;51.864;5.646;2022-08-01T04:26:16;22.25;;;9.13;;
42140;SDS011;27809;51.864;5.646;2022-08-01T04:28:43;16.30;;;6.65;;
42140;SDS011;27809;51.864;5.646;2022-08-01T04:31:09;17.17;;;6.22;;
42140;SDS011;27809;51.864;5.646;2022-08-01T04:33:38;18.48;;;7.47;;
42140;SDS011;27809;51.864;5.646;2022-08-01T04:36:08;14.88;;;7.07;;
42140;SDS011;27809;51.864;5.646;2022-08-01T04:38:37;13.60;;;5.43;;
42140;SDS011;27809;51.864;5.646;2022-08-01T04:41:05;15.52;;;6.65;;
42140;SDS011;27809;51.864;5.646;2022-08-01T04:43:33;22.38;;;6.60;;
42140;SDS011;27809;51.864;5.646;2022-08-01T04:45:58;15.63;;;5.05;;
42140;SDS011;27809;51.864;5.646;2022-08-01T04:48:28;14.80;;;5.82;;
42140;SDS011;27809;51.864;5.646;2022-08-01T04:50:54;12.73;;;5.63;;
42140;SDS011;27809;51.864;5.646;2022-08-01T04:53:20;12.90;;;5.68;;
42140;SDS011;27809;51.864;5.646;2022-08-01T04:55:48;15.90;;;6.03;;
42140;SDS011;27809;51.864;5.646;2022-08-01T04:58:14;12.05;;;5.32;;
42140;SDS011;27809;51.864;5.646;2022-08-01T05:00:40;11.43;;;6.57;;
42140;SDS011;27809;51.864;5.646;2022-08-01T05:03:06;13.13;;;7.25;;
42140;SDS011;27809;51.864;5.646;2022-08-01T05:05:32;11.10;;;7.30;;
42140;SDS011;27809;51.864;5.646;2022-08-01T05:07:57;13.80;;;7.18;;
42140;SDS011;27809;51.864;5.646;2022-08-01T05:10:23;10.50;;;6.28;;
42140;SDS011;27809;51.864;5.646;2022-08-01T05:12:48;10.60;;;6.20;;
42140;SDS011;27809;51.864;5.646;2022-08-01T05:15:14;22.90;;;7.10;;
42140;SDS011;27809;51.864;5.646;2022-08-01T05:17:39;12.68;;;6.97;;
42140;SDS011;27809;51.864;5.646;2022-08-01T05:20:07;13.35;;;5.45;;
42140;SDS011;27809;51.864;5.646;2022-08-01T05:22:33;15.77;;;6.32;;
42140;SDS011;27809;51.864;5.646;2022-08-01T05:24:58;13.50;;;7.38;;
42140;SDS011;27809;51.864;5.646;2022-08-01T05:27:24;15.07;;;7.10;;
42140;SDS011;27809;51.864;5.646;2022-08-01T05:29:50;2.65;;;1.65;;
42140;SDS011;27809;51.864;5.646;2022-08-01T05:32:16;8.10;;;5.65;;
42140;SDS011;27809;51.864;5.646;2022-08-01T05:34:41;13.38;;;6.30;;
42140;SDS011;27809;51.864;5.646;2022-08-01T05:37:07;13.15;;;6.57;;
42140;SDS011;27809;51.864;5.646;2022-08-01T05:39:33;15.02;;;6.80;;
42140;SDS011;27809;51.864;5.646;2022-08-01T05:41:58;12.15;;;6.80;;
42140;SDS011;27809;51.864;5.646;2022-08-01T05:44:24;11.30;;;7.60;;
42140;SDS011;27809;51.864;5.646;2022-08-01T05:46:50;9.95;;;6.00;;
42140;SDS011;27809;51.864;5.646;2022-08-01T05:49:16;13.18;;;7.35;;
42140;SDS011;27809;51.864;5.646;2022-08-01T05:51:41;9.70;;;5.88;;
42140;SDS011;27809;51.864;5.646;2022-08-01T05:54:07;9.45;;;5.65;;
42140;SDS011;27809;51.864;5.646;2022-08-01T05:56:32;11.88;;;4.35;;
42140;SDS011;27809;51.864;5.646;2022-08-01T05:58:58;5.03;;;1.95;;
42140;SDS011;27809;51.864;5.646;2022-08-01T06:01:24;9.23;;;3.03;;
42140;SDS011;27809;51.864;5.646;2022-08-01T06:03:49;6.68;;;2.47;;
42140;SDS011;27809;51.864;5.646;2022-08-01T06:06:15;7.78;;;3.00;;
42140;SDS011;27809;51.864;5.646;2022-08-01T06:08:41;9.25;;;3.75;;
42140;SDS011;27809;51.864;5.646;2022-08-01T06:11:06;8.13;;;3.17;;
42140;SDS011;27809;51.864;5.646;2022-08-01T06:13:32;11.57;;;2.60;;
42140;SDS011;27809;51.864;5.646;2022-08-01T06:15:58;5.88;;;2.38;;
42140;SDS011;27809;51.864;5.646;2022-08-01T06:18:23;8.15;;;2.95;;
42140;SDS011;27809;51.864;5.646;2022-08-01T06:20:49;7.15;;;2.60;;
42140;SDS011;27809;51.864;5.646;2022-08-01T06:23:14;4.95;;;3.05;;
42140;SDS011;27809;51.864;5.646;2022-08-01T06:25:43;6.63;;;2.00;;
42140;SDS011;27809;51.864;5.646;2022-08-01T06:28:09;2.97;;;1.13;;
42140;SDS011;27809;51.864;5.646;2022-08-01T06:30:34;3.42;;;1.80;;
42140;SDS011;27809;51.864;5.646;2022-08-01T06:33:00;3.45;;;1.17;;
42140;SDS011;27809;51.864;5.646;2022-08-01T06:35:26;3.75;;;1.20;;
42140;SDS011;27809;51.864;5.646;2022-08-01T06:37:54;4.32;;;1.45;;
42140;SDS011;27809;51.864;5.646;2022-08-01T06:40:20;3.17;;;0.85;;
42140;SDS011;27809;51.864;5.646;2022-08-01T06:42:45;1.27;;;0.60;;
42140;SDS011;27809;51.864;5.646;2022-08-01T06:45:11;2.58;;;0.50;;
42140;SDS011;27809;51.864;5.646;2022-08-01T06:47:38;7.53;;;0.52;;
42140;SDS011;27809;51.864;5.646;2022-08-01T06:50:05;6.22;;;1.10;;
42140;SDS011;27809;51.864;5.646;2022-08-01T06:52:31;3.08;;;1.02;;
42140;SDS011;27809;51.864;5.646;2022-08-01T06:54:57;0.77;;;0.40;;
42140;SDS011;27809;51.864;5.646;2022-08-01T06:57:23;4.57;;;0.70;;
42140;SDS011;27809;51.864;5.646;2022-08-01T06:59:48;1.50;;;0.73;;
42140;SDS011;27809;51.864;5.646;2022-08-01T07:02:14;0.73;;;0.30;;
42140;SDS011;27809;51.864;5.646;2022-08-01T07:04:39;2.10;;;0.35;;
42140;SDS011;27809;51.864;5.646;2022-08-01T07:07:05;0.77;;;0.40;;
42140;SDS011;27809;51.864;5.646;2022-08-01T07:09:31;0.65;;;0.40;;
42140;SDS011;27809;51.864;5.646;2022-08-01T07:11:56;0.70;;;0.40;;
42140;SDS011;27809;51.864;5.646;2022-08-01T07:14:22;0.90;;;0.40;;
42140;SDS011;27809;51.864;5.646;2022-08-01T07:16:49;2.05;;;0.60;;
42140;SDS011;27809;51.864;5.646;2022-08-01T07:19:15;0.70;;;0.30;;
42140;SDS011;27809;51.864;5.646;2022-08-01T07:21:41;3.05;;;0.50;;
42140;SDS011;27809;51.864;5.646;2022-08-01T07:24:07;0.55;;;0.30;;
42140;SDS011;27809;51.864;5.646;2022-08-01T07:26:34;2.22;;;0.65;;
42140;SDS011;27809;51.864;5.646;2022-08-01T07:29:00;0.43;;;0.25;;
42140;SDS011;27809;51.864;5.646;2022-08-01T07:31:25;0.82;;;0.30;;
42140;SDS011;27809;51.864;5.646;2022-08-01T07:33:51;0.93;;;0.52;;
42140;SDS011;27809;51.864;5.646;2022-08-01T07:36:17;2.10;;;0.30;;
42140;SDS011;27809;51.864;5.646;2022-08-01T07:38:43;0.45;;;0.28;;
42140;SDS011;27809;51.864;5.646;2022-08-01T07:41:09;4.68;;;0.30;;
42140;SDS011;27809;51.864;5.646;2022-08-01T07:43:35;3.55;;;0.30;;
42140;SDS011;27809;51.864;5.646;2022-08-01T07:46:01;1.27;;;0.20;;
42140;SDS011;27809;51.864;5.646;2022-08-01T07:48:27;0.40;;;0.20;;
42140;SDS011;27809;51.864;5.646;2022-08-01T07:50:53;0.55;;;0.20;;
42140;SDS011;27809;51.864;5.646;2022-08-01T07:53:19;1.95;;;0.50;;
42140;SDS011;27809;51.864;5.646;2022-08-01T07:55:44;1.20;;;0.40;;
42140;SDS011;27809;51.864;5.646;2022-08-01T07:58:10;2.60;;;0.20;;
42140;SDS011;27809;51.864;5.646;2022-08-01T08:00:35;0.40;;;0.25;;
42140;SDS011;27809;51.864;5.646;2022-08-01T08:03:01;0.70;;;0.20;;
42140;SDS011;27809;51.864;5.646;2022-08-01T08:05:27;1.30;;;0.20;;
42140;SDS011;27809;51.864;5.646;2022-08-01T08:07:52;1.17;;;0.38;;
42140;SDS011;27809;51.864;5.646;2022-08-01T08:10:18;2.75;;;0.30;;
42140;SDS011;27809;51.864;5.646;2022-08-01T08:12:44;5.97;;;0.82;;
42140;SDS011;27809;51.864;5.646;2022-08-01T08:15:11;2.78;;;0.40;;
42140;SDS011;27809;51.864;5.646;2022-08-01T08:17:37;0.98;;;0.30;;
42140;SDS011;27809;51.864;5.646;2022-08-01T08:20:05;3.20;;;0.40;;
42140;SDS011;27809;51.864;5.646;2022-08-01T08:22:32;0.88;;;0.43;;
42140;SDS011;27809;51.864;5.646;2022-08-01T08:24:57;0.70;;;0.28;;
42140;SDS011;27809;51.864;5.646;2022-08-01T08:27:23;1.08;;;0.30;;
42140;SDS011;27809;51.864;5.646;2022-08-01T08:29:49;1.85;;;0.57;;
42140;SDS011;27809;51.864;5.646;2022-08-01T08:32:14;2.55;;;0.40;;
42140;SDS011;27809;51.864;5.646;2022-08-01T08:34:40;0.52;;;0.30;;
42140;SDS011;27809;51.864;5.646;2022-08-01T08:37:05;1.67;;;0.60;;
42140;SDS011;27809;51.864;5.646;2022-08-01T08:39:32;3.40;;;0.28;;
42140;SDS011;27809;51.864;5.646;2022-08-01T08:42:00;0.75;;;0.30;;
42140;SDS011;27809;51.864;5.646;2022-08-01T08:44:30;0.38;;;0.30;;
42140;SDS011;27809;51.864;5.646;2022-08-01T08:46:55;1.40;;;0.50;;
42140;SDS011;27809;51.864;5.646;2022-08-01T08:49:24;1.25;;;0.30;;
42140;SDS011;27809;51.864;5.646;2022-08-01T08:51:52;0.60;;;0.30;;
42140;SDS011;27809;51.864;5.646;2022-08-01T08:54:20;0.55;;;0.40;;
42140;SDS011;27809;51.864;5.646;2022-08-01T08:56:48;1.60;;;0.55;;
42140;SDS011;27809;51.864;5.646;2022-08-01T08:59:16;6.53;;;1.05;;
42140;SDS011;27809;51.864;5.646;2022-08-01T09:01:42;2.60;;;0.35;;
42140;SDS011;27809;51.864;5.646;2022-08-01T09:04:09;2.67;;;0.40;;
42140;SDS011;27809;51.864;5.646;2022-08-01T09:06:35;0.75;;;0.40;;
42140;SDS011;27809;51.864;5.646;2022-08-01T09:09:02;1.95;;;0.47;;
42140;SDS011;27809;51.864;5.646;2022-08-01T09:11:28;1.10;;;0.38;;
42140;SDS011;27809;51.864;5.646;2022-08-01T09:16:43;0.55;;;0.40;;
42140;SDS011;27809;51.864;5.646;2022-08-01T09:19:11;1.02;;;0.45;;
42140;SDS011;27809;51.864;5.646;2022-08-01T09:21:38;0.90;;;0.40;;
42140;SDS011;27809;51.864;5.646;2022-08-01T09:24:13;0.68;;;0.40;;
42140;SDS011;27809;51.864;5.646;2022-08-01T09:26:40;0.82;;;0.30;;
42140;SDS011;27809;51.864;5.646;2022-08-01T09:29:06;2.55;;;0.60;;
42140;SDS011;27809;51.864;5.646;2022-08-01T09:31:42;0.93;;;0.73;;
42140;SDS011;27809;51.864;5.646;2022-08-01T09:34:09;2.70;;;0.50;;
42140;SDS011;27809;51.864;5.646;2022-08-01T09:36:46;0.70;;;0.45;;
42140;SDS011;27809;51.864;5.646;2022-08-01T09:39:26;3.05;;;0.30;;
42140;SDS011;27809;51.864;5.646;2022-08-01T09:41:57;0.30;;;0.20;;
42140;SDS011;27809;51.864;5.646;2022-08-01T09:44:41;0.55;;;0.20;;
42140;SDS011;27809;51.864;5.646;2022-08-01T09:47:08;1.55;;;0.20;;
42140;SDS011;27809;51.864;5.646;2022-08-01T09:49:34;2.28;;;0.30;;
42140;SDS011;27809;51.864;5.646;2022-08-01T09:54:37;4.82;;;0.50;;
42140;SDS011;27809;51.864;5.646;2022-08-01T09:57:10;10.77;;;0.95;;
42140;SDS011;27809;51.864;5.646;2022-08-01T09:59:38;2.67;;;0.30;;
42140;SDS011;27809;51.864;5.646;2022-08-01T10:02:07;2.15;;;0.60;;
42140;SDS011;27809;51.864;5.646;2022-08-01T10:04:35;0.85;;;0.40;;
42140;SDS011;27809;51.864;5.646;2022-08-01T10:07:05;3.13;;;1.40;;
42140;SDS011;27809;51.864;5.646;2022-08-01T10:09:32;6.20;;;1.55;;
42140;SDS011;27809;51.864;5.646;2022-08-01T10:11:59;4.70;;;1.25;;
42140;SDS011;27809;51.864;5.646;2022-08-01T10:14:26;9.40;;;1.63;;
42140;SDS011;27809;51.864;5.646;2022-08-01T10:16:53;4.35;;;1.92;;
42140;SDS011;27809;51.864;5.646;2022-08-01T10:19:22;5.70;;;2.13;;
42140;SDS011;27809;51.864;5.646;2022-08-01T10:21:50;4.53;;;2.33;;
42140;SDS011;27809;51.864;5.646;2022-08-01T10:24:18;6.38;;;1.90;;
42140;SDS011;27809;51.864;5.646;2022-08-01T10:26:46;11.75;;;2.70;;
42140;SDS011;27809;51.864;5.646;2022-08-01T10:29:14;3.75;;;1.30;;
42140;SDS011;27809;51.864;5.646;2022-08-01T10:31:43;2.95;;;0.80;;
42140;SDS011;27809;51.864;5.646;2022-08-01T10:34:08;5.38;;;0.77;;
42140;SDS011;27809;51.864;5.646;2022-08-01T10:36:36;3.30;;;0.82;;
42140;SDS011;27809;51.864;5.646;2022-08-01T10:39:04;3.38;;;0.95;;
42140;SDS011;27809;51.864;5.646;2022-08-01T10:41:32;2.38;;;1.00;;
42140;SDS011;27809;51.864;5.646;2022-08-01T10:44:00;2.17;;;0.55;;
42140;SDS011;27809;51.864;5.646;2022-08-01T10:46:26;4.40;;;1.27;;
42140;SDS011;27809;51.864;5.646;2022-08-01T10:51:21;1.27;;;0.47;;
42140;SDS011;27809;51.864;5.646;2022-08-01T10:53:52;2.50;;;0.60;;
42140;SDS011;27809;51.864;5.646;2022-08-01T10:56:19;5.70;;;1.38;;
42140;SDS011;27809;51.864;5.646;2022-08-01T10:58:49;3.80;;;0.85;;
42140;SDS011;27809;51.864;5.646;2022-08-01T11:01:21;4.97;;;1.15;;
42140;SDS011;27809;51.864;5.646;2022-08-01T11:08:57;5.00;;;1.02;;
42140;SDS011;27809;51.864;5.646;2022-08-01T11:11:24;3.90;;;1.00;;
42140;SDS011;27809;51.864;5.646;2022-08-01T11:16:29;6.13;;;1.13;;
42140;SDS011;27809;51.864;5.646;2022-08-01T11:18:56;5.57;;;0.75;;
42140;SDS011;27809;51.864;5.646;2022-08-01T11:21:21;3.28;;;0.50;;
42140;SDS011;27809;51.864;5.646;2022-08-01T11:23:51;3.75;;;0.60;;
42140;SDS011;27809;51.864;5.646;2022-08-01T11:26:18;6.05;;;0.75;;
42140;SDS011;27809;51.864;5.646;2022-08-01T11:28:45;5.47;;;1.02;;
42140;SDS011;27809;51.864;5.646;2022-08-01T11:31:31;6.38;;;0.73;;
42140;SDS011;27809;51.864;5.646;2022-08-01T11:33:57;3.45;;;1.38;;
42140;SDS011;27809;51.864;5.646;2022-08-01T11:36:24;9.43;;;1.60;;
42140;SDS011;27809;51.864;5.646;2022-08-01T11:41:16;3.47;;;0.98;;
42140;SDS011;27809;51.864;5.646;2022-08-01T11:47:09;2.88;;;1.17;;
42140;SDS011;27809;51.864;5.646;2022-08-01T11:49:57;4.13;;;0.80;;
42140;SDS011;27809;51.864;5.646;2022-08-01T11:52:10;4.30;;;1.40;;
42140;SDS011;27809;51.864;5.646;2022-08-01T11:54:37;2.33;;;0.70;;
42140;SDS011;27809;51.864;5.646;2022-08-01T11:57:09;16.40;;;1.50;;
42140;SDS011;27809;51.864;5.646;2022-08-01T11:59:37;5.07;;;1.00;;
42140;SDS011;27809;51.864;5.646;2022-08-01T12:02:18;9.23;;;1.20;;
42140;SDS011;27809;51.864;5.646;2022-08-01T12:04:51;2.03;;;0.43;;
42140;SDS011;27809;51.864;5.646;2022-08-01T12:07:26;4.63;;;1.52;;
42140;SDS011;27809;51.864;5.646;2022-08-01T12:10:09;2.63;;;0.75;;
42140;SDS011;27809;51.864;5.646;2022-08-01T12:12:44;4.07;;;1.00;;
42140;SDS011;27809;51.864;5.646;2022-08-01T12:15:18;7.75;;;1.95;;
42140;SDS011;27809;51.864;5.646;2022-08-01T12:17:48;1.92;;;0.60;;
42140;SDS011;27809;51.864;5.646;2022-08-01T12:20:16;2.55;;;0.70;;
42140;SDS011;27809;51.864;5.646;2022-08-01T12:22:45;3.03;;;0.50;;
42140;SDS011;27809;51.864;5.646;2022-08-01T12:25:12;3.13;;;0.50;;
42140;SDS011;27809;51.864;5.646;2022-08-01T12:27:39;5.78;;;0.80;;
42140;SDS011;27809;51.864;5.646;2022-08-01T12:30:06;2.47;;;0.90;;
42140;SDS011;27809;51.864;5.646;2022-08-01T12:32:33;2.42;;;0.45;;
42140;SDS011;27809;51.864;5.646;2022-08-01T12:35:03;2.15;;;0.82;;
42140;SDS011;27809;51.864;5.646;2022-08-01T12:37:28;5.28;;;0.90;;
42140;SDS011;27809;51.864;5.646;2022-08-01T12:39:54;2.85;;;0.40;;
42140;SDS011;27809;51.864;5.646;2022-08-01T12:42:21;3.10;;;0.75;;
42140;SDS011;27809;51.864;5.646;2022-08-01T12:44:47;4.55;;;1.77;;
42140;SDS011;27809;51.864;5.646;2022-08-01T12:47:16;4.63;;;1.38;;
42140;SDS011;27809;51.864;5.646;2022-08-01T12:49:43;5.38;;;1.20;;
42140;SDS011;27809;51.864;5.646;2022-08-01T12:52:09;1.40;;;0.60;;
42140;SDS011;27809;51.864;5.646;2022-08-01T12:57:29;2.28;;;0.70;;
42140;SDS011;27809;51.864;5.646;2022-08-01T13:03:00;1.38;;;0.63;;
42140;SDS011;27809;51.864;5.646;2022-08-01T13:05:26;3.80;;;0.70;;
42140;SDS011;27809;51.864;5.646;2022-08-01T13:07:52;3.13;;;0.55;;
42140;SDS011;27809;51.864;5.646;2022-08-01T13:10:25;2.38;;;0.85;;
42140;SDS011;27809;51.864;5.646;2022-08-01T13:12:53;1.27;;;0.30;;
42140;SDS011;27809;51.864;5.646;2022-08-01T13:15:22;7.95;;;0.50;;
42140;SDS011;27809;51.864;5.646;2022-08-01T13:17:58;9.88;;;1.00;;
42140;SDS011;27809;51.864;5.646;2022-08-01T13:20:29;1.52;;;0.40;;
42140;SDS011;27809;51.864;5.646;2022-08-01T13:25:54;4.38;;;0.68;;
42140;SDS011;27809;51.864;5.646;2022-08-01T13:28:22;1.33;;;0.50;;
42140;SDS011;27809;51.864;5.646;2022-08-01T13:30:56;3.65;;;0.45;;
42140;SDS011;27809;51.864;5.646;2022-08-01T13:33:26;4.03;;;0.55;;
42140;SDS011;27809;51.864;5.646;2022-08-01T13:35:54;2.72;;;0.30;;
42140;SDS011;27809;51.864;5.646;2022-08-01T13:38:21;4.72;;;1.30;;
42140;SDS011;27809;51.864;5.646;2022-08-01T13:41:05;2.22;;;0.60;;
42140;SDS011;27809;51.864;5.646;2022-08-01T13:43:31;3.15;;;0.55;;
42140;SDS011;27809;51.864;5.646;2022-08-01T13:45:57;2.85;;;0.40;;
42140;SDS011;27809;51.864;5.646;2022-08-01T13:48:22;5.13;;;1.42;;
42140;SDS011;27809;51.864;5.646;2022-08-01T13:50:48;3.88;;;0.77;;
42140;SDS011;27809;51.864;5.646;2022-08-01T13:53:13;2.97;;;0.82;;
42140;SDS011;27809;51.864;5.646;2022-08-01T13:55:39;5.70;;;0.73;;
42140;SDS011;27809;51.864;5.646;2022-08-01T13:58:05;4.22;;;0.93;;
42140;SDS011;27809;51.864;5.646;2022-08-01T14:00:31;4.93;;;0.52;;
42140;SDS011;27809;51.864;5.646;2022-08-01T14:02:56;6.05;;;0.52;;
42140;SDS011;27809;51.864;5.646;2022-08-01T14:05:22;2.83;;;0.60;;
42140;SDS011;27809;51.864;5.646;2022-08-01T14:07:47;5.70;;;0.50;;
42140;SDS011;27809;51.864;5.646;2022-08-01T14:10:13;8.43;;;1.25;;
42140;SDS011;27809;51.864;5.646;2022-08-01T14:12:38;4.30;;;0.70;;
42140;SDS011;27809;51.864;5.646;2022-08-01T14:15:04;3.45;;;0.50;;
42140;SDS011;27809;51.864;5.646;2022-08-01T14:17:30;1.90;;;0.85;;
42140;SDS011;27809;51.864;5.646;2022-08-01T14:19:57;4.03;;;0.60;;
42140;SDS011;27809;51.864;5.646;2022-08-01T14:22:24;8.30;;;1.55;;
42140;SDS011;27809;51.864;5.646;2022-08-01T14:24:49;4.82;;;0.40;;
42140;SDS011;27809;51.864;5.646;2022-08-01T14:27:15;3.25;;;0.50;;
42140;SDS011;27809;51.864;5.646;2022-08-01T14:29:40;1.77;;;0.40;;
42140;SDS011;27809;51.864;5.646;2022-08-01T14:32:06;4.18;;;1.13;;
42140;SDS011;27809;51.864;5.646;2022-08-01T14:34:31;2.88;;;0.40;;
42140;SDS011;27809;51.864;5.646;2022-08-01T14:36:57;5.72;;;1.42;;
42140;SDS011;27809;51.864;5.646;2022-08-01T14:39:22;9.15;;;0.68;;
42140;SDS011;27809;51.864;5.646;2022-08-01T14:41:48;2.33;;;0.30;;
42140;SDS011;27809;51.864;5.646;2022-08-01T14:44:13;3.08;;;0.45;;
42140;SDS011;27809;51.864;5.646;2022-08-01T14:46:39;1.83;;;0.30;;
42140;SDS011;27809;51.864;5.646;2022-08-01T14:49:06;2.53;;;0.35;;
42140;SDS011;27809;51.864;5.646;2022-08-01T14:51:31;4.60;;;0.40;;
42140;SDS011;27809;51.864;5.646;2022-08-01T14:53:59;2.08;;;0.75;;
42140;SDS011;27809;51.864;5.646;2022-08-01T14:56:24;4.03;;;1.05;;
42140;SDS011;27809;51.864;5.646;2022-08-01T14:58:50;4.35;;;0.30;;
42140;SDS011;27809;51.864;5.646;2022-08-01T15:01:16;2.85;;;0.40;;
42140;SDS011;27809;51.864;5.646;2022-08-01T15:03:42;8.23;;;0.75;;
42140;SDS011;27809;51.864;5.646;2022-08-01T15:06:08;1.08;;;0.20;;
42140;SDS011;27809;51.864;5.646;2022-08-01T15:08:36;3.13;;;0.28;;
42140;SDS011;27809;51.864;5.646;2022-08-01T15:11:01;1.52;;;0.40;;
42140;SDS011;27809;51.864;5.646;2022-08-01T15:13:27;0.82;;;0.20;;
42140;SDS011;27809;51.864;5.646;2022-08-01T15:15:52;1.92;;;0.30;;
42140;SDS011;27809;51.864;5.646;2022-08-01T15:18:18;1.92;;;0.55;;
42140;SDS011;27809;51.864;5.646;2022-08-01T15:20:44;2.38;;;0.52;;
42140;SDS011;27809;51.864;5.646;2022-08-01T15:23:10;4.32;;;0.32;;
42140;SDS011;27809;51.864;5.646;2022-08-01T15:25:36;3.88;;;1.25;;
42140;SDS011;27809;51.864;5.646;2022-08-01T15:28:01;3.88;;;0.40;;